createdAt,value
2022-09-20T00:01:59.428Z,6.79
2022-09-20T00:04:26.141Z,6.69
2022-09-20T00:06:52.774Z,6.65
2022-09-20T00:09:19.858Z,6.62
2022-09-20T00:11:53.651Z,6.60
2022-09-20T00:14:20.213Z,6.60
2022-09-20T00:16:46.757Z,6.56
2022-09-20T00:19:19.463Z,6.51
2022-09-20T00:21:46.226Z,6.47
2022-09-20T00:24:48.856Z,6.45
2022-09-20T00:27:24.099Z,6.43
2022-09-20T00:29:50.926Z,6.40
2022-09-20T00:32:17.477Z,6.37
2022-09-20T00:35:02.960Z,6.33
2022-09-20T00:37:30.004Z,6.30
2022-09-20T00:39:56.534Z,6.28
2022-09-20T00:42:28.309Z,6.30
2022-09-20T00:45:21.949Z,6.32
2022-09-20T00:48:04.805Z,6.34
2022-09-20T00:50:42.414Z,6.37
2022-09-20T00:53:32.959Z,6.41
2022-09-20T00:56:26.717Z,6.43
2022-09-20T00:59:15.733Z,6.46
2022-09-20T01:01:45.788Z,6.52
2022-09-20T01:04:14.787Z,6.59
2022-09-20T01:06:45.398Z,6.65
2022-09-20T01:09:13.057Z,6.66
2022-09-20T01:11:40.702Z,6.75
2022-09-20T01:14:08.325Z,6.79
2022-09-20T01:16:36.939Z,6.85
2022-09-20T01:19:16.163Z,6.87
2022-09-20T01:21:44.778Z,6.84
2022-09-20T01:24:33.063Z,6.81
2022-09-20T01:27:21.764Z,6.75
2022-09-20T01:30:07.837Z,6.70
2022-09-20T01:32:49.872Z,6.60
2022-09-20T01:35:21.535Z,6.54
2022-09-20T01:38:19.631Z,6.52
2022-09-20T01:41:13.925Z,6.46
2022-09-20T01:44:19.939Z,6.39
2022-09-20T01:47:16.364Z,6.30
2022-09-20T01:50:06.960Z,6.20
2022-09-20T01:52:58.712Z,6.12
2022-09-20T01:55:43.528Z,6.04
2022-09-20T01:58:41.925Z,5.94
2022-09-20T02:01:25.801Z,5.84
2022-09-20T02:04:15.938Z,5.79
2022-09-20T02:07:08.982Z,5.72
2022-09-20T02:09:55.095Z,5.68
2022-09-20T02:12:50.919Z,5.66
2022-09-20T02:15:32.251Z,5.64
2022-09-20T02:18:15.841Z,5.65
2022-09-20T02:20:58.346Z,5.67
2022-09-20T02:23:55.017Z,5.71
2022-09-20T02:26:40.670Z,5.77
2022-09-20T02:29:37.016Z,5.80
2022-09-20T02:32:32.923Z,5.83
2022-09-20T02:35:17.213Z,5.80
2022-09-20T02:38:08.193Z,5.77
2022-09-20T02:40:46.742Z,5.75
2022-09-20T02:43:28.325Z,5.72
2022-09-20T02:46:23.928Z,5.69
2022-09-20T02:49:34.917Z,5.65
2022-09-20T02:52:38.932Z,5.58
2022-09-20T02:55:18.608Z,5.49
2022-09-20T02:58:13.745Z,5.37
2022-09-20T03:00:57.189Z,5.24
2022-09-20T03:04:07.982Z,5.12
2022-09-20T03:07:00.953Z,4.98
2022-09-20T03:09:39.265Z,4.88
2022-09-20T03:12:41.955Z,4.78
2022-09-20T03:15:28.764Z,4.70
2022-09-20T03:18:25.960Z,4.64
2022-09-20T03:21:12.286Z,4.60
2022-09-20T03:24:24.962Z,4.54
2022-09-20T03:27:27.274Z,4.55
2022-09-20T03:30:31.083Z,4.56
2022-09-20T03:33:36.127Z,4.57
2022-09-20T03:36:28.888Z,4.56
2022-09-20T03:39:11.895Z,4.59
2022-09-20T03:41:55.029Z,4.63
2022-09-20T03:44:33.812Z,4.66
2022-09-20T03:47:24.867Z,4.68
2022-09-20T03:50:04.156Z,4.70
2022-09-20T03:53:05.957Z,4.70
2022-09-20T03:56:16.474Z,4.71
2022-09-20T03:59:29.961Z,4.71
2022-09-20T04:02:26.560Z,4.69
2022-09-20T04:05:33.915Z,4.65
2022-09-20T04:08:29.428Z,4.60
2022-09-20T04:11:26.566Z,4.56
2022-09-20T04:14:19.959Z,4.50
2022-09-20T04:17:16.920Z,4.46
2022-09-20T04:19:59.153Z,4.44
2022-09-20T04:22:32.170Z,4.42
2022-09-20T04:25:15.502Z,4.41
2022-09-20T04:28:08.376Z,4.43
2022-09-20T04:30:43.629Z,4.47
2022-09-20T04:33:27.858Z,4.51
2022-09-20T04:36:36.911Z,4.55
2022-09-20T04:39:18.136Z,4.60
2022-09-20T04:42:16.568Z,4.63
2022-09-20T04:45:10.125Z,4.69
2022-09-20T04:48:16.896Z,4.77
2022-09-20T04:51:17.472Z,4.86
2022-09-20T04:54:14.881Z,4.96
2022-09-20T04:57:07.651Z,5.08
2022-09-20T05:00:10.485Z,5.22
2022-09-20T05:03:28.960Z,5.39
2022-09-20T05:06:17.797Z,5.56
2022-09-20T05:09:24.555Z,5.72
2022-09-20T05:12:33.939Z,5.84
2022-09-20T05:15:46.959Z,5.92
2022-09-20T05:18:32.477Z,6.00
2022-09-20T05:21:19.448Z,6.03
2022-09-20T05:24:04.607Z,6.08
2022-09-20T05:27:19.915Z,6.14
2022-09-20T05:30:04.333Z,6.18
2022-09-20T05:33:13.016Z,6.20
2022-09-20T05:36:17.945Z,6.24
2022-09-20T05:39:08.334Z,6.28
2022-09-20T05:46:03.800Z,6.39
2022-09-20T05:49:13.008Z,6.42
2022-09-20T05:52:22.929Z,6.47
2022-09-20T05:56:07.912Z,6.52
2022-09-20T05:59:24.980Z,6.59
2022-09-20T06:02:20.990Z,6.63
2022-09-20T06:05:29.905Z,6.67
2022-09-20T06:08:27.460Z,6.71
2022-09-20T06:11:20.904Z,6.84
2022-09-20T06:18:35.219Z,7.15
2022-09-20T06:25:30.883Z,7.42
2022-09-20T06:28:46.996Z,7.49
2022-09-20T06:45:46.189Z,7.92
2022-09-20T06:49:26.696Z,8.02
2022-09-20T06:52:24.972Z,8.13
2022-09-20T06:55:27.181Z,8.22
2022-09-20T06:58:54.568Z,8.28
2022-09-20T07:01:38.281Z,8.20
2022-09-20T07:04:54.296Z,8.11
2022-09-20T07:07:48.429Z,8.26
2022-09-20T07:10:31.751Z,8.39
2022-09-20T07:13:41.286Z,8.47
2022-09-20T07:16:11.058Z,8.60
2022-09-20T07:18:40.561Z,8.77
2022-09-20T07:21:13.716Z,8.91
2022-09-20T07:23:41.030Z,9.05
2022-09-20T07:26:18.047Z,9.21
2022-09-20T07:28:44.883Z,9.34
2022-09-20T07:31:16.347Z,9.42
2022-09-20T07:33:46.425Z,9.52
2022-09-20T07:36:14.361Z,9.64
2022-09-20T07:38:42.393Z,9.77
2022-09-20T07:41:10.057Z,9.91
2022-09-20T07:43:37.101Z,10.00
2022-09-20T07:46:04.746Z,10.06
2022-09-20T07:48:34.538Z,10.21
2022-09-20T07:51:08.441Z,10.21
2022-09-20T07:53:36.414Z,10.22
2022-09-20T07:56:11.195Z,10.28
2022-09-20T07:58:38.097Z,10.46
2022-09-20T08:01:07.649Z,10.72
2022-09-20T08:03:59.462Z,10.87
2022-09-20T08:06:28.229Z,11.09
2022-09-20T08:08:55.366Z,11.22
2022-09-20T08:11:29.287Z,11.24
2022-09-20T08:14:12.143Z,11.27
2022-09-20T08:20:26.482Z,11.15
2022-09-20T08:23:31.043Z,11.14
2022-09-20T08:26:56.833Z,11.13
2022-09-20T08:29:26.213Z,11.16
2022-09-20T08:31:57.849Z,11.10
2022-09-20T08:34:39.203Z,10.85
2022-09-20T08:37:07.355Z,10.89
2022-09-20T08:42:34.940Z,11.01
2022-09-20T08:45:22.184Z,11.10
2022-09-20T08:47:58.457Z,11.15
2022-09-20T08:50:26.532Z,11.22
2022-09-20T08:53:00.702Z,11.02
2022-09-20T08:55:36.537Z,11.15
2022-09-20T08:58:08.542Z,11.31
2022-09-20T09:00:40.211Z,11.55
2022-09-20T09:03:16.260Z,11.77
2022-09-20T09:05:47.008Z,11.99
2022-09-20T09:08:27.799Z,12.26
2022-09-20T09:11:01.264Z,12.41
2022-09-20T09:13:34.054Z,12.57
2022-09-20T09:16:08.505Z,12.87
2022-09-20T09:18:40.839Z,13.25
2022-09-20T09:21:49.670Z,13.39
2022-09-20T09:24:20.356Z,13.53
2022-09-20T09:27:17.836Z,13.65
2022-09-20T09:30:01.388Z,13.47
2022-09-20T09:32:32.325Z,13.39
2022-09-20T09:35:25.192Z,13.44
2022-09-20T09:38:00.302Z,13.51
2022-09-20T09:40:32.490Z,13.53
2022-09-20T09:43:29.886Z,13.49
2022-09-20T09:46:17.817Z,13.26
2022-09-20T09:48:54.807Z,13.14
2022-09-20T09:51:26.624Z,13.04
2022-09-20T09:54:01.083Z,12.69
2022-09-20T09:56:56.600Z,12.53
2022-09-20T09:59:57.786Z,12.29
2022-09-20T10:02:56.803Z,12.21
2022-09-20T10:06:07.359Z,12.30
2022-09-20T10:08:56.896Z,12.11
2022-09-20T10:11:58.084Z,12.48
2022-09-20T10:14:49.078Z,12.70
2022-09-20T10:17:37.531Z,12.83
2022-09-20T10:20:34.283Z,12.94
2022-09-20T10:23:58.631Z,13.15
2022-09-20T10:26:40.657Z,13.17
2022-09-20T10:29:39.168Z,13.05
2022-09-20T10:32:26.882Z,13.00
2022-09-20T10:35:15.355Z,12.84
2022-09-20T10:38:16.134Z,12.81
2022-09-20T10:41:38.980Z,12.99
2022-09-20T10:44:41.550Z,13.14
2022-09-20T10:47:28.146Z,13.14
2022-09-20T10:50:37.809Z,12.96
2022-09-20T10:53:51.511Z,12.88
2022-09-20T10:56:30.318Z,12.66
2022-09-20T10:59:35.399Z,12.62
2022-09-20T11:02:46.470Z,12.53
2022-09-20T11:05:36.465Z,12.46
2022-09-20T11:08:12.672Z,12.59
2022-09-20T11:10:51.188Z,12.75
2022-09-20T11:13:39.670Z,13.31
2022-09-20T11:16:40.109Z,13.39
2022-09-20T11:20:04.721Z,13.29
2022-09-20T11:22:59.368Z,13.24
2022-09-20T11:25:39.442Z,13.07
2022-09-20T11:28:38.723Z,13.10
2022-09-20T11:31:19.631Z,13.43
2022-09-20T11:34:11.177Z,13.81
2022-09-20T11:36:54.032Z,14.34
2022-09-20T11:39:59.684Z,14.67
2022-09-20T11:42:36.118Z,14.88
2022-09-20T11:45:08.392Z,15.01
2022-09-20T11:47:55.368Z,14.74
2022-09-20T11:50:49.601Z,14.76
2022-09-20T11:53:42.343Z,14.87
2022-09-20T11:56:27.344Z,14.70
2022-09-20T11:59:46.122Z,14.57
2022-09-20T12:02:47.834Z,14.13
2022-09-20T12:05:37.643Z,13.95
2022-09-20T12:08:21.864Z,13.75
2022-09-20T12:11:08.508Z,13.43
2022-09-20T12:13:40.977Z,13.43
2022-09-20T12:28:40.027Z,14.17
2022-09-20T12:31:42.593Z,14.25
2022-09-20T12:34:36.577Z,14.28
2022-09-20T12:37:24.827Z,14.24
2022-09-20T12:39:54.994Z,14.19
2022-09-20T12:42:29.363Z,14.10
2022-09-20T12:45:04.982Z,13.76
2022-09-20T12:47:39.053Z,13.37
2022-09-20T12:50:31.937Z,13.41
2022-09-20T12:53:04.430Z,13.25
2022-09-20T12:55:54.515Z,13.23
2022-09-20T12:58:28.017Z,13.07
2022-09-20T13:01:34.829Z,12.85
2022-09-20T13:04:33.108Z,12.63
2022-09-20T13:07:33.286Z,12.40
2022-09-20T13:10:17.740Z,12.22
2022-09-20T13:12:50.440Z,12.10
2022-09-20T13:15:21.966Z,11.90
2022-09-20T13:17:56.740Z,11.78
2022-09-20T13:20:27.916Z,11.68
2022-09-20T13:23:00.170Z,11.60
2022-09-20T13:25:39.491Z,11.48
2022-09-20T13:28:21.210Z,11.41
2022-09-20T13:31:23.723Z,11.45
2022-09-20T13:33:53.643Z,11.51
2022-09-20T13:36:39.785Z,11.49
2022-09-20T13:39:08.218Z,11.60
2022-09-20T13:41:49.257Z,11.73
2022-09-20T13:44:19.607Z,11.81
2022-09-20T13:47:11.130Z,11.92
2022-09-20T13:49:43.869Z,12.51
2022-09-20T13:52:23.556Z,13.55
2022-09-20T13:55:01.533Z,13.91
2022-09-20T13:57:30.285Z,14.23
2022-09-20T14:00:05.475Z,14.10
2022-09-20T14:02:42.629Z,13.71
2022-09-20T14:05:22.439Z,13.44
2022-09-20T14:08:01.144Z,13.23
2022-09-20T14:10:33.219Z,13.10
2022-09-20T14:13:04.787Z,12.96
2022-09-20T14:15:37.332Z,12.87
2022-09-20T14:18:06.465Z,12.78
2022-09-20T14:20:43.457Z,12.67
2022-09-20T14:23:55.215Z,12.47
2022-09-20T14:26:27.064Z,12.29
2022-09-20T14:28:54.304Z,12.17
2022-09-20T14:31:31.646Z,12.04
2022-09-20T14:34:01.809Z,11.95
2022-09-20T14:36:30.637Z,11.87
2022-09-20T14:39:19.345Z,11.80
2022-09-20T14:41:46.920Z,11.69
2022-09-20T14:44:34.045Z,11.61
2022-09-20T14:47:14.002Z,11.60
2022-09-20T14:49:52.087Z,11.60
2022-09-20T14:52:36.017Z,11.58
2022-09-20T14:55:32.717Z,11.53
2022-09-20T14:58:13.157Z,11.49
2022-09-20T15:00:58.404Z,11.49
2022-09-20T15:03:39.327Z,11.40
2022-09-20T15:06:10.276Z,11.23
2022-09-20T15:08:38.691Z,11.27
2022-09-20T15:11:31.431Z,11.29
2022-09-20T15:13:58.683Z,11.32
2022-09-20T15:16:29.120Z,11.35
2022-09-20T15:19:16.301Z,11.36
2022-09-20T15:22:16.728Z,11.38
2022-09-20T15:25:43.111Z,11.36
2022-09-20T15:28:18.828Z,11.34
2022-09-20T15:31:27.680Z,11.29
2022-09-20T15:33:55.320Z,11.27
2022-09-20T15:36:42.681Z,11.24
2022-09-20T15:39:32.407Z,11.20
2022-09-20T15:42:52.021Z,11.11
2022-09-20T15:46:16.004Z,10.99
2022-09-20T15:48:58.601Z,10.90
2022-09-20T15:51:31.136Z,10.85
2022-09-20T15:54:00.444Z,10.77
2022-09-20T15:56:30.721Z,10.71
2022-09-20T15:59:02.495Z,10.66
2022-09-20T16:01:36.896Z,10.59
2022-09-20T16:04:09.350Z,10.54
2022-09-20T16:06:37.832Z,10.51
2022-09-20T16:09:09.463Z,10.48
2022-09-20T16:11:38.151Z,10.46
2022-09-20T16:14:05.679Z,10.44
2022-09-20T16:16:39.174Z,10.41
2022-09-20T16:19:18.457Z,10.37
2022-09-20T16:21:50.550Z,10.36
2022-09-20T16:24:34.049Z,10.33
2022-09-20T16:27:03.379Z,10.30
2022-09-20T16:29:30.616Z,10.27
2022-09-20T16:32:38.378Z,10.23
2022-09-20T16:35:17.703Z,10.14
2022-09-20T16:38:13.438Z,10.10
2022-09-20T16:40:40.708Z,10.05
2022-09-20T16:43:08.228Z,10.00
2022-09-20T16:45:35.671Z,9.95
2022-09-20T16:48:08.345Z,9.91
2022-09-20T16:50:35.325Z,9.87
2022-09-20T16:53:03.705Z,9.82
2022-09-20T16:55:30.208Z,9.78
2022-09-20T16:57:56.761Z,9.75
2022-09-20T17:00:23.396Z,9.71
2022-09-20T17:02:50.362Z,9.65
2022-09-20T17:05:16.903Z,9.58
2022-09-20T17:07:45.997Z,9.49
2022-09-20T17:10:12.490Z,9.44
2022-09-20T17:12:42.152Z,9.40
2022-09-20T17:15:13.291Z,9.38
2022-09-20T17:17:41.358Z,9.36
2022-09-20T17:20:07.990Z,9.34
2022-09-20T17:22:34.937Z,9.33
2022-09-20T17:25:01.673Z,9.29
2022-09-20T17:27:28.449Z,9.25
2022-09-20T17:29:55.079Z,9.22
2022-09-20T17:32:22.313Z,9.19
2022-09-20T17:34:48.802Z,9.14
2022-09-20T17:37:15.391Z,9.06
2022-09-20T17:39:42.023Z,8.96
2022-09-20T17:42:08.659Z,8.84
2022-09-20T17:44:37.526Z,8.74
2022-09-20T17:47:04.519Z,8.64
2022-09-20T17:49:31.034Z,8.54
2022-09-20T17:51:57.681Z,8.46
2022-09-20T17:54:24.800Z,8.36
2022-09-20T17:56:55.080Z,8.26
2022-09-20T17:59:24.315Z,8.17
2022-09-20T18:01:53.543Z,8.08
2022-09-20T18:04:20.629Z,8.00
2022-09-20T18:06:53.501Z,7.91
2022-09-20T18:09:24.207Z,7.83
2022-09-20T18:11:52.916Z,7.74
2022-09-20T18:14:22.588Z,7.66
2022-09-20T18:16:55.478Z,7.59
2022-09-20T18:19:22.230Z,7.54
2022-09-20T18:21:50.214Z,7.48
2022-09-20T18:24:16.869Z,7.44
2022-09-20T18:26:43.822Z,7.41
2022-09-20T18:29:13.534Z,7.40
2022-09-20T18:31:45.502Z,7.40
2022-09-20T18:34:17.166Z,7.41
2022-09-20T18:36:50.854Z,7.42
2022-09-20T18:39:31.677Z,7.44
2022-09-20T18:41:59.704Z,7.54
2022-09-20T18:44:45.365Z,7.59
2022-09-20T18:47:12.786Z,7.62
2022-09-20T18:49:40.065Z,7.63
2022-09-20T18:52:08.543Z,7.64
2022-09-20T18:54:37.296Z,7.65
2022-09-20T18:57:07.956Z,7.64
2022-09-20T18:59:36.975Z,7.63
2022-09-20T19:02:20.886Z,7.59
2022-09-20T19:05:06.598Z,7.56
2022-09-20T19:07:48.140Z,7.52
2022-09-20T19:10:51.023Z,7.46
2022-09-20T19:13:56.113Z,7.38
2022-09-20T19:17:01.725Z,7.30
2022-09-20T19:19:51.922Z,7.22
2022-09-20T19:22:35.225Z,7.16
2022-09-20T19:25:27.912Z,7.10
2022-09-20T19:28:12.155Z,7.06
2022-09-20T19:31:02.957Z,7.03
2022-09-20T19:33:56.135Z,7.00
2022-09-20T19:36:34.979Z,6.99
2022-09-20T19:39:20.569Z,6.98
2022-09-20T19:42:15.974Z,6.97
2022-09-20T19:44:57.759Z,6.95
2022-09-20T19:47:37.414Z,6.94
2022-09-20T19:50:34.952Z,6.93
2022-09-20T19:53:03.545Z,6.90
2022-09-20T19:55:34.358Z,6.89
2022-09-20T19:58:01.672Z,6.86
2022-09-20T20:00:43.546Z,6.83
2022-09-20T20:03:13.861Z,6.78
2022-09-20T20:06:08.214Z,6.74
2022-09-20T20:08:58.987Z,6.67
2022-09-20T20:11:37.898Z,6.63
2022-09-20T20:14:19.933Z,6.59
2022-09-20T20:17:01.067Z,6.58
2022-09-20T20:19:53.989Z,6.58
2022-09-20T20:22:39.099Z,6.60
2022-09-20T20:25:31.963Z,6.63
2022-09-20T20:27:58.884Z,6.70
2022-09-20T20:30:25.965Z,6.79
2022-09-20T20:32:57.709Z,6.87
2022-09-20T20:35:25.277Z,6.96
2022-09-20T20:37:52.803Z,7.03
2022-09-20T20:40:21.678Z,7.09
2022-09-20T20:43:01.589Z,7.12
2022-09-20T20:45:29.437Z,7.15
2022-09-20T20:47:58.731Z,7.16
2022-09-20T20:50:41.533Z,7.15
2022-09-20T20:53:08.177Z,7.13
2022-09-20T20:55:34.811Z,7.10
2022-09-20T20:58:01.390Z,7.07
2022-09-20T21:00:28.060Z,7.04
2022-09-20T21:02:57.775Z,7.00
2022-09-20T21:05:25.672Z,6.96
2022-09-20T21:07:54.103Z,6.92
2022-09-20T21:10:21.673Z,6.91
2022-09-20T21:12:49.755Z,6.90
2022-09-20T21:15:17.875Z,6.91
2022-09-20T21:17:52.914Z,6.93
2022-09-20T21:20:21.476Z,6.97
2022-09-20T21:22:48.080Z,7.01
2022-09-20T21:25:14.677Z,7.05
2022-09-20T21:27:41.547Z,7.10
2022-09-20T21:30:08.917Z,7.16
2022-09-20T21:32:36.031Z,7.20
2022-09-20T21:35:02.950Z,7.23
2022-09-20T21:37:29.894Z,7.25
2022-09-20T21:39:56.940Z,7.26
2022-09-20T21:42:26.451Z,7.24
2022-09-20T21:44:53.011Z,7.24
2022-09-20T21:47:20.056Z,7.24
2022-09-20T21:49:47.834Z,7.22
2022-09-20T21:52:14.457Z,7.22
2022-09-20T21:54:45.714Z,7.21
2022-09-20T21:57:13.031Z,7.20
2022-09-20T21:59:39.942Z,7.19
2022-09-20T22:02:06.668Z,7.17
2022-09-20T22:04:33.360Z,7.15
2022-09-20T22:07:03.270Z,7.14
2022-09-20T22:09:30.330Z,7.11
2022-09-20T22:11:56.969Z,7.08
2022-09-20T22:14:23.894Z,7.04
2022-09-20T22:16:50.951Z,7.01
2022-09-20T22:19:18.220Z,6.99
2022-09-20T22:21:48.005Z,6.98
2022-09-20T22:24:15.682Z,6.96
2022-09-20T22:26:47.754Z,6.96
2022-09-20T22:29:15.095Z,6.94
2022-09-20T22:31:45.005Z,6.80
2022-09-20T22:34:16.641Z,6.83
2022-09-20T22:36:43.946Z,6.86
2022-09-20T22:39:12.438Z,6.90
2022-09-20T22:41:40.608Z,6.95
2022-09-20T22:44:07.089Z,6.96
2022-09-20T22:46:33.819Z,6.95
2022-09-20T22:49:00.415Z,6.93
2022-09-20T22:51:32.489Z,6.91
2022-09-20T22:54:28.951Z,6.91
2022-09-20T22:57:38.889Z,6.87
2022-09-20T23:00:49.933Z,6.80
2022-09-20T23:03:55.023Z,6.71
2022-09-20T23:07:00.099Z,6.64
2022-09-20T23:10:07.964Z,6.59
2022-09-20T23:13:10.077Z,6.56
2022-09-20T23:16:15.037Z,6.53
2022-09-20T23:19:17.875Z,6.56
2022-09-20T23:22:24.301Z,6.59
2022-09-20T23:25:28.970Z,6.64
2022-09-20T23:28:35.933Z,6.70
2022-09-20T23:31:47.397Z,6.74
2022-09-20T23:34:54.876Z,6.77
2022-09-20T23:38:03.416Z,6.80
2022-09-20T23:41:14.952Z,6.87
2022-09-20T23:47:45.219Z,6.96
2022-09-20T23:50:49.903Z,6.96
2022-09-20T23:53:58.043Z,6.98
2022-09-20T23:56:59.908Z,6.98
